sensor_id;sensor_type;location;lat;lon;timestamp;P1;durP1;ratioP1;P2;durP2;ratioP2
57551;SDS011;43379;48.160;14.036;2023-08-08T00:00:23;3.20;;;1.97;;
57551;SDS011;43379;48.160;14.036;2023-08-08T00:02:49;3.10;;;1.70;;
57551;SDS011;43379;48.160;14.036;2023-08-08T00:05:14;3.10;;;2.00;;
57551;SDS011;43379;48.160;14.036;2023-08-08T00:07:40;2.20;;;1.93;;
57551;SDS011;43379;48.160;14.036;2023-08-08T00:10:06;2.53;;;1.90;;
57551;SDS011;43379;48.160;14.036;2023-08-08T00:12:32;4.27;;;2.53;;
57551;SDS011;43379;48.160;14.036;2023-08-08T00:14:58;2.30;;;2.10;;
57551;SDS011;43379;48.160;14.036;2023-08-08T00:17:23;2.00;;;1.60;;
57551;SDS011;43379;48.160;14.036;2023-08-08T00:19:49;2.40;;;2.00;;
57551;SDS011;43379;48.160;14.036;2023-08-08T00:22:14;3.00;;;2.10;;
57551;SDS011;43379;48.160;14.036;2023-08-08T00:24:40;2.13;;;1.93;;
57551;SDS011;43379;48.160;14.036;2023-08-08T00:27:06;2.17;;;2.00;;
57551;SDS011;43379;48.160;14.036;2023-08-08T00:29:31;1.87;;;1.77;;
57551;SDS011;43379;48.160;14.036;2023-08-08T00:31:57;2.70;;;2.50;;
57551;SDS011;43379;48.160;14.036;2023-08-08T00:34:22;1.70;;;1.47;;
57551;SDS011;43379;48.160;14.036;2023-08-08T00:36:48;2.50;;;1.97;;
57551;SDS011;43379;48.160;14.036;2023-08-08T00:39:14;2.70;;;1.90;;
57551;SDS011;43379;48.160;14.036;2023-08-08T00:41:39;2.20;;;2.00;;
57551;SDS011;43379;48.160;14.036;2023-08-08T00:44:05;2.53;;;2.33;;
57551;SDS011;43379;48.160;14.036;2023-08-08T00:46:31;2.13;;;1.87;;
57551;SDS011;43379;48.160;14.036;2023-08-08T00:48:56;2.10;;;2.00;;
57551;SDS011;43379;48.160;14.036;2023-08-08T00:51:22;2.50;;;2.30;;
57551;SDS011;43379;48.160;14.036;2023-08-08T00:53:49;2.20;;;2.00;;
57551;SDS011;43379;48.160;14.036;2023-08-08T00:56:15;2.23;;;1.93;;
57551;SDS011;43379;48.160;14.036;2023-08-08T00:58:42;3.00;;;2.00;;
57551;SDS011;43379;48.160;14.036;2023-08-08T01:01:10;3.03;;;1.90;;
57551;SDS011;43379;48.160;14.036;2023-08-08T01:03:36;2.40;;;2.20;;
57551;SDS011;43379;48.160;14.036;2023-08-08T01:06:03;3.17;;;2.10;;
57551;SDS011;43379;48.160;14.036;2023-08-08T01:08:42;2.60;;;2.23;;
57551;SDS011;43379;48.160;14.036;2023-08-08T01:11:32;1.83;;;1.70;;
57551;SDS011;43379;48.160;14.036;2023-08-08T01:13:59;2.27;;;2.07;;
57551;SDS011;43379;48.160;14.036;2023-08-08T01:16:27;2.30;;;2.10;;
57551;SDS011;43379;48.160;14.036;2023-08-08T01:18:53;2.30;;;2.10;;
57551;SDS011;43379;48.160;14.036;2023-08-08T01:21:20;1.93;;;1.70;;
57551;SDS011;43379;48.160;14.036;2023-08-08T01:26:19;2.00;;;1.80;;
57551;SDS011;43379;48.160;14.036;2023-08-08T01:28:46;2.00;;;1.80;;
57551;SDS011;43379;48.160;14.036;2023-08-08T01:31:12;2.40;;;2.20;;
57551;SDS011;43379;48.160;14.036;2023-08-08T01:33:38;2.90;;;1.80;;
57551;SDS011;43379;48.160;14.036;2023-08-08T01:36:14;2.50;;;2.23;;
57551;SDS011;43379;48.160;14.036;2023-08-08T01:38:53;2.50;;;1.73;;
57551;SDS011;43379;48.160;14.036;2023-08-08T01:41:22;2.73;;;2.17;;
57551;SDS011;43379;48.160;14.036;2023-08-08T01:43:48;2.13;;;1.87;;
57551;SDS011;43379;48.160;14.036;2023-08-08T01:46:15;2.67;;;2.03;;
57551;SDS011;43379;48.160;14.036;2023-08-08T01:48:44;3.53;;;2.20;;
57551;SDS011;43379;48.160;14.036;2023-08-08T01:51:10;2.10;;;1.90;;
57551;SDS011;43379;48.160;14.036;2023-08-08T01:53:36;2.50;;;2.30;;
57551;SDS011;43379;48.160;14.036;2023-08-08T01:56:01;3.00;;;1.80;;
57551;SDS011;43379;48.160;14.036;2023-08-08T01:58:28;2.20;;;2.00;;
57551;SDS011;43379;48.160;14.036;2023-08-08T02:00:53;2.10;;;1.87;;
57551;SDS011;43379;48.160;14.036;2023-08-08T02:03:19;3.47;;;1.40;;
57551;SDS011;43379;48.160;14.036;2023-08-08T02:05:45;2.30;;;2.10;;
57551;SDS011;43379;48.160;14.036;2023-08-08T02:08:10;2.27;;;2.07;;
57551;SDS011;43379;48.160;14.036;2023-08-08T02:10:37;3.50;;;2.10;;
57551;SDS011;43379;48.160;14.036;2023-08-08T02:13:03;2.10;;;1.90;;
57551;SDS011;43379;48.160;14.036;2023-08-08T02:15:29;2.33;;;1.90;;
57551;SDS011;43379;48.160;14.036;2023-08-08T02:17:54;1.70;;;1.43;;
57551;SDS011;43379;48.160;14.036;2023-08-08T02:20:20;2.70;;;2.20;;
57551;SDS011;43379;48.160;14.036;2023-08-08T02:22:46;2.07;;;1.87;;
57551;SDS011;43379;48.160;14.036;2023-08-08T02:25:12;2.60;;;2.00;;
57551;SDS011;43379;48.160;14.036;2023-08-08T02:27:37;1.93;;;1.73;;
57551;SDS011;43379;48.160;14.036;2023-08-08T02:30:03;2.20;;;2.00;;
57551;SDS011;43379;48.160;14.036;2023-08-08T02:32:29;2.80;;;2.50;;
57551;SDS011;43379;48.160;14.036;2023-08-08T02:34:55;1.60;;;1.50;;
57551;SDS011;43379;48.160;14.036;2023-08-08T02:37:21;2.20;;;2.00;;
57551;SDS011;43379;48.160;14.036;2023-08-08T02:39:46;2.50;;;2.30;;
57551;SDS011;43379;48.160;14.036;2023-08-08T02:42:12;2.17;;;1.97;;
57551;SDS011;43379;48.160;14.036;2023-08-08T02:44:38;2.00;;;1.80;;
57551;SDS011;43379;48.160;14.036;2023-08-08T02:47:03;2.50;;;2.30;;
57551;SDS011;43379;48.160;14.036;2023-08-08T02:49:29;2.60;;;2.40;;
57551;SDS011;43379;48.160;14.036;2023-08-08T02:51:55;2.33;;;2.13;;
57551;SDS011;43379;48.160;14.036;2023-08-08T02:54:20;2.30;;;1.97;;
57551;SDS011;43379;48.160;14.036;2023-08-08T02:56:46;2.60;;;2.17;;
57551;SDS011;43379;48.160;14.036;2023-08-08T02:59:11;2.60;;;2.17;;
57551;SDS011;43379;48.160;14.036;2023-08-08T03:01:37;2.20;;;2.00;;
57551;SDS011;43379;48.160;14.036;2023-08-08T03:04:04;3.57;;;2.30;;
57551;SDS011;43379;48.160;14.036;2023-08-08T03:06:31;3.43;;;2.60;;
57551;SDS011;43379;48.160;14.036;2023-08-08T03:08:57;3.57;;;2.60;;
57551;SDS011;43379;48.160;14.036;2023-08-08T03:11:22;3.30;;;2.17;;
57551;SDS011;43379;48.160;14.036;2023-08-08T03:13:48;2.00;;;1.67;;
57551;SDS011;43379;48.160;14.036;2023-08-08T03:16:13;2.60;;;2.13;;
57551;SDS011;43379;48.160;14.036;2023-08-08T03:18:39;2.50;;;2.30;;
57551;SDS011;43379;48.160;14.036;2023-08-08T03:21:05;3.03;;;2.37;;
57551;SDS011;43379;48.160;14.036;2023-08-08T03:23:31;2.73;;;2.43;;
57551;SDS011;43379;48.160;14.036;2023-08-08T03:25:57;5.23;;;2.40;;
57551;SDS011;43379;48.160;14.036;2023-08-08T03:28:22;2.90;;;2.37;;
57551;SDS011;43379;48.160;14.036;2023-08-08T03:30:49;2.30;;;2.10;;
57551;SDS011;43379;48.160;14.036;2023-08-08T03:33:15;2.70;;;2.50;;
57551;SDS011;43379;48.160;14.036;2023-08-08T03:35:40;2.73;;;2.47;;
57551;SDS011;43379;48.160;14.036;2023-08-08T03:38:06;3.67;;;2.80;;
57551;SDS011;43379;48.160;14.036;2023-08-08T03:40:32;3.30;;;2.70;;
57551;SDS011;43379;48.160;14.036;2023-08-08T03:42:58;2.63;;;2.43;;
57551;SDS011;43379;48.160;14.036;2023-08-08T03:45:23;2.43;;;2.23;;
57551;SDS011;43379;48.160;14.036;2023-08-08T03:47:49;3.00;;;2.57;;
57551;SDS011;43379;48.160;14.036;2023-08-08T03:50:15;2.50;;;2.30;;
57551;SDS011;43379;48.160;14.036;2023-08-08T03:52:40;3.40;;;3.07;;
57551;SDS011;43379;48.160;14.036;2023-08-08T03:55:06;3.00;;;2.73;;
57551;SDS011;43379;48.160;14.036;2023-08-08T03:57:32;2.87;;;2.60;;
57551;SDS011;43379;48.160;14.036;2023-08-08T03:59:58;2.40;;;2.20;;
57551;SDS011;43379;48.160;14.036;2023-08-08T04:02:24;3.13;;;2.80;;
57551;SDS011;43379;48.160;14.036;2023-08-08T04:04:50;2.80;;;2.50;;
57551;SDS011;43379;48.160;14.036;2023-08-08T04:07:16;2.50;;;2.30;;
57551;SDS011;43379;48.160;14.036;2023-08-08T04:09:41;3.40;;;2.90;;
57551;SDS011;43379;48.160;14.036;2023-08-08T04:12:07;4.77;;;2.70;;
57551;SDS011;43379;48.160;14.036;2023-08-08T04:14:33;3.40;;;2.53;;
57551;SDS011;43379;48.160;14.036;2023-08-08T04:16:59;3.77;;;2.93;;
57551;SDS011;43379;48.160;14.036;2023-08-08T04:19:24;2.70;;;2.50;;
57551;SDS011;43379;48.160;14.036;2023-08-08T04:21:50;3.30;;;2.63;;
57551;SDS011;43379;48.160;14.036;2023-08-08T04:24:16;3.70;;;3.03;;
57551;SDS011;43379;48.160;14.036;2023-08-08T04:26:42;3.33;;;2.93;;
57551;SDS011;43379;48.160;14.036;2023-08-08T04:29:08;2.87;;;2.53;;
57551;SDS011;43379;48.160;14.036;2023-08-08T04:31:33;2.90;;;2.50;;
57551;SDS011;43379;48.160;14.036;2023-08-08T04:33:59;6.80;;;3.47;;
57551;SDS011;43379;48.160;14.036;2023-08-08T04:36:29;3.30;;;2.83;;
57551;SDS011;43379;48.160;14.036;2023-08-08T04:38:55;4.13;;;3.20;;
57551;SDS011;43379;48.160;14.036;2023-08-08T04:41:21;4.03;;;3.20;;
57551;SDS011;43379;48.160;14.036;2023-08-08T04:43:46;5.13;;;3.20;;
57551;SDS011;43379;48.160;14.036;2023-08-08T04:46:12;3.30;;;3.00;;
57551;SDS011;43379;48.160;14.036;2023-08-08T04:48:38;4.13;;;3.73;;
57551;SDS011;43379;48.160;14.036;2023-08-08T04:51:07;3.37;;;3.07;;
57551;SDS011;43379;48.160;14.036;2023-08-08T04:53:33;5.00;;;2.83;;
57551;SDS011;43379;48.160;14.036;2023-08-08T04:55:59;7.70;;;3.07;;
57551;SDS011;43379;48.160;14.036;2023-08-08T04:58:25;4.70;;;2.77;;
57551;SDS011;43379;48.160;14.036;2023-08-08T05:00:50;3.63;;;3.33;;
57551;SDS011;43379;48.160;14.036;2023-08-08T05:03:16;4.30;;;2.73;;
57551;SDS011;43379;48.160;14.036;2023-08-08T05:05:42;4.13;;;3.73;;
57551;SDS011;43379;48.160;14.036;2023-08-08T05:08:10;2.50;;;2.30;;
57551;SDS011;43379;48.160;14.036;2023-08-08T05:10:36;3.30;;;2.87;;
57551;SDS011;43379;48.160;14.036;2023-08-08T05:13:02;6.30;;;2.73;;
57551;SDS011;43379;48.160;14.036;2023-08-08T05:15:27;3.30;;;3.03;;
57551;SDS011;43379;48.160;14.036;2023-08-08T05:17:53;3.37;;;3.07;;
57551;SDS011;43379;48.160;14.036;2023-08-08T05:20:20;5.50;;;3.77;;
57551;SDS011;43379;48.160;14.036;2023-08-08T05:22:46;3.17;;;2.60;;
57551;SDS011;43379;48.160;14.036;2023-08-08T05:25:12;4.33;;;3.20;;
57551;SDS011;43379;48.160;14.036;2023-08-08T05:27:38;2.77;;;2.57;;
57551;SDS011;43379;48.160;14.036;2023-08-08T05:30:04;3.13;;;2.80;;
57551;SDS011;43379;48.160;14.036;2023-08-08T05:32:30;5.73;;;2.80;;
57551;SDS011;43379;48.160;14.036;2023-08-08T05:34:56;2.97;;;2.40;;
57551;SDS011;43379;48.160;14.036;2023-08-08T05:37:22;4.53;;;2.60;;
57551;SDS011;43379;48.160;14.036;2023-08-08T05:39:49;5.73;;;3.60;;
57551;SDS011;43379;48.160;14.036;2023-08-08T05:42:14;8.90;;;4.40;;
57551;SDS011;43379;48.160;14.036;2023-08-08T05:44:40;4.30;;;3.90;;
57551;SDS011;43379;48.160;14.036;2023-08-08T05:47:09;4.30;;;3.83;;
57551;SDS011;43379;48.160;14.036;2023-08-08T05:49:35;5.03;;;3.83;;
57551;SDS011;43379;48.160;14.036;2023-08-08T05:52:01;4.20;;;3.80;;
57551;SDS011;43379;48.160;14.036;2023-08-08T05:54:27;4.83;;;4.20;;
57551;SDS011;43379;48.160;14.036;2023-08-08T05:56:53;5.83;;;4.97;;
57551;SDS011;43379;48.160;14.036;2023-08-08T05:59:19;4.80;;;4.30;;
57551;SDS011;43379;48.160;14.036;2023-08-08T06:01:45;7.10;;;5.13;;
57551;SDS011;43379;48.160;14.036;2023-08-08T06:04:11;5.47;;;4.60;;
57551;SDS011;43379;48.160;14.036;2023-08-08T06:06:37;6.47;;;3.63;;
57551;SDS011;43379;48.160;14.036;2023-08-08T06:09:03;5.10;;;3.90;;
57551;SDS011;43379;48.160;14.036;2023-08-08T06:11:29;5.13;;;3.83;;
57551;SDS011;43379;48.160;14.036;2023-08-08T06:13:55;4.80;;;4.03;;
57551;SDS011;43379;48.160;14.036;2023-08-08T06:16:21;4.97;;;4.07;;
57551;SDS011;43379;48.160;14.036;2023-08-08T06:18:47;5.63;;;4.73;;
57551;SDS011;43379;48.160;14.036;2023-08-08T06:21:13;6.03;;;4.10;;
57551;SDS011;43379;48.160;14.036;2023-08-08T06:23:38;7.80;;;4.20;;
57551;SDS011;43379;48.160;14.036;2023-08-08T06:26:04;6.57;;;3.67;;
57551;SDS011;43379;48.160;14.036;2023-08-08T06:28:30;4.53;;;4.00;;
57551;SDS011;43379;48.160;14.036;2023-08-08T06:30:57;5.43;;;3.57;;
57551;SDS011;43379;48.160;14.036;2023-08-08T06:33:23;6.37;;;3.77;;
57551;SDS011;43379;48.160;14.036;2023-08-08T06:35:49;5.40;;;4.00;;
57551;SDS011;43379;48.160;14.036;2023-08-08T06:38:14;4.93;;;4.00;;
57551;SDS011;43379;48.160;14.036;2023-08-08T06:40:40;6.33;;;3.30;;
57551;SDS011;43379;48.160;14.036;2023-08-08T06:43:06;3.70;;;3.30;;
57551;SDS011;43379;48.160;14.036;2023-08-08T06:45:31;5.00;;;3.20;;
57551;SDS011;43379;48.160;14.036;2023-08-08T06:47:57;6.70;;;3.37;;
57551;SDS011;43379;48.160;14.036;2023-08-08T06:50:23;4.73;;;3.60;;
57551;SDS011;43379;48.160;14.036;2023-08-08T06:52:51;4.53;;;3.80;;
57551;SDS011;43379;48.160;14.036;2023-08-08T06:55:17;3.40;;;3.10;;
57551;SDS011;43379;48.160;14.036;2023-08-08T06:57:42;5.33;;;3.00;;
57551;SDS011;43379;48.160;14.036;2023-08-08T07:00:08;5.43;;;2.93;;
57551;SDS011;43379;48.160;14.036;2023-08-08T07:02:37;4.50;;;3.10;;
57551;SDS011;43379;48.160;14.036;2023-08-08T07:05:02;6.73;;;3.33;;
57551;SDS011;43379;48.160;14.036;2023-08-08T07:07:29;3.67;;;2.70;;
57551;SDS011;43379;48.160;14.036;2023-08-08T07:09:55;3.37;;;2.83;;
57551;SDS011;43379;48.160;14.036;2023-08-08T07:12:21;4.73;;;2.90;;
57551;SDS011;43379;48.160;14.036;2023-08-08T07:14:47;5.00;;;3.67;;
57551;SDS011;43379;48.160;14.036;2023-08-08T07:17:13;4.83;;;3.23;;
57551;SDS011;43379;48.160;14.036;2023-08-08T07:19:39;4.10;;;3.00;;
57551;SDS011;43379;48.160;14.036;2023-08-08T07:22:06;3.40;;;2.83;;
57551;SDS011;43379;48.160;14.036;2023-08-08T07:24:32;5.30;;;3.47;;
57551;SDS011;43379;48.160;14.036;2023-08-08T07:26:58;7.43;;;4.27;;
57551;SDS011;43379;48.160;14.036;2023-08-08T07:29:24;3.53;;;3.00;;
57551;SDS011;43379;48.160;14.036;2023-08-08T07:31:51;2.50;;;2.30;;
57551;SDS011;43379;48.160;14.036;2023-08-08T07:34:18;4.90;;;2.00;;
57551;SDS011;43379;48.160;14.036;2023-08-08T07:36:44;22.40;;;9.47;;
57551;SDS011;43379;48.160;14.036;2023-08-08T07:39:10;24.33;;;9.80;;
57551;SDS011;43379;48.160;14.036;2023-08-08T07:41:36;15.93;;;6.27;;
57551;SDS011;43379;48.160;14.036;2023-08-08T07:44:02;4.93;;;2.60;;
57551;SDS011;43379;48.160;14.036;2023-08-08T07:46:28;3.20;;;2.40;;
57551;SDS011;43379;48.160;14.036;2023-08-08T07:48:54;4.33;;;2.10;;
57551;SDS011;43379;48.160;14.036;2023-08-08T07:51:19;2.27;;;2.07;;
57551;SDS011;43379;48.160;14.036;2023-08-08T07:53:45;1.90;;;1.77;;
57551;SDS011;43379;48.160;14.036;2023-08-08T07:56:11;6.80;;;2.63;;
57551;SDS011;43379;48.160;14.036;2023-08-08T07:58:36;3.80;;;2.40;;
57551;SDS011;43379;48.160;14.036;2023-08-08T08:01:02;2.90;;;2.13;;
57551;SDS011;43379;48.160;14.036;2023-08-08T08:03:28;4.27;;;2.70;;
57551;SDS011;43379;48.160;14.036;2023-08-08T08:05:53;5.17;;;2.40;;
57551;SDS011;43379;48.160;14.036;2023-08-08T08:08:19;2.60;;;1.73;;
57551;SDS011;43379;48.160;14.036;2023-08-08T08:10:46;2.00;;;1.40;;
57551;SDS011;43379;48.160;14.036;2023-08-08T08:13:13;2.17;;;1.97;;
57551;SDS011;43379;48.160;14.036;2023-08-08T08:15:39;2.30;;;1.60;;
57551;SDS011;43379;48.160;14.036;2023-08-08T08:18:05;3.00;;;1.50;;
57551;SDS011;43379;48.160;14.036;2023-08-08T08:20:30;2.83;;;1.93;;
57551;SDS011;43379;48.160;14.036;2023-08-08T08:22:56;2.60;;;1.73;;
57551;SDS011;43379;48.160;14.036;2023-08-08T08:25:21;1.50;;;1.40;;
57551;SDS011;43379;48.160;14.036;2023-08-08T08:27:47;1.90;;;1.60;;
57551;SDS011;43379;48.160;14.036;2023-08-08T08:30:13;4.03;;;1.47;;
57551;SDS011;43379;48.160;14.036;2023-08-08T08:32:42;2.50;;;1.33;;
57551;SDS011;43379;48.160;14.036;2023-08-08T08:35:08;2.60;;;1.50;;
57551;SDS011;43379;48.160;14.036;2023-08-08T08:37:34;1.80;;;1.40;;
57551;SDS011;43379;48.160;14.036;2023-08-08T08:40:00;1.90;;;1.70;;
57551;SDS011;43379;48.160;14.036;2023-08-08T08:42:26;2.67;;;1.70;;
57551;SDS011;43379;48.160;14.036;2023-08-08T08:44:54;1.93;;;1.30;;
57551;SDS011;43379;48.160;14.036;2023-08-08T08:47:22;2.17;;;1.47;;
57551;SDS011;43379;48.160;14.036;2023-08-08T08:49:51;2.53;;;1.60;;
57551;SDS011;43379;48.160;14.036;2023-08-08T08:52:18;3.20;;;2.07;;
57551;SDS011;43379;48.160;14.036;2023-08-08T08:54:44;1.77;;;1.27;;
57551;SDS011;43379;48.160;14.036;2023-08-08T08:57:09;2.07;;;1.77;;
57551;SDS011;43379;48.160;14.036;2023-08-08T08:59:35;2.13;;;1.60;;
57551;SDS011;43379;48.160;14.036;2023-08-08T09:02:01;3.03;;;2.07;;
57551;SDS011;43379;48.160;14.036;2023-08-08T09:04:27;2.40;;;1.90;;
57551;SDS011;43379;48.160;14.036;2023-08-08T09:06:54;2.20;;;1.60;;
57551;SDS011;43379;48.160;14.036;2023-08-08T09:09:20;3.10;;;1.53;;
57551;SDS011;43379;48.160;14.036;2023-08-08T09:11:48;2.93;;;1.60;;
57551;SDS011;43379;48.160;14.036;2023-08-08T09:14:22;2.93;;;1.50;;
57551;SDS011;43379;48.160;14.036;2023-08-08T09:16:50;2.53;;;1.60;;
57551;SDS011;43379;48.160;14.036;2023-08-08T09:19:19;2.03;;;1.20;;
57551;SDS011;43379;48.160;14.036;2023-08-08T09:21:46;1.90;;;1.50;;
57551;SDS011;43379;48.160;14.036;2023-08-08T09:24:12;2.17;;;1.40;;
57551;SDS011;43379;48.160;14.036;2023-08-08T09:26:39;2.33;;;1.87;;
57551;SDS011;43379;48.160;14.036;2023-08-08T09:29:05;1.57;;;1.30;;
57551;SDS011;43379;48.160;14.036;2023-08-08T09:31:31;1.43;;;1.20;;
57551;SDS011;43379;48.160;14.036;2023-08-08T09:33:59;1.57;;;1.33;;
57551;SDS011;43379;48.160;14.036;2023-08-08T09:36:26;3.33;;;1.23;;
57551;SDS011;43379;48.160;14.036;2023-08-08T09:38:53;3.80;;;2.00;;
57551;SDS011;43379;48.160;14.036;2023-08-08T09:41:22;1.10;;;1.00;;
57551;SDS011;43379;48.160;14.036;2023-08-08T09:43:49;1.30;;;1.10;;
57551;SDS011;43379;48.160;14.036;2023-08-08T09:46:16;1.50;;;1.40;;
57551;SDS011;43379;48.160;14.036;2023-08-08T09:48:44;2.40;;;1.43;;
57551;SDS011;43379;48.160;14.036;2023-08-08T09:51:10;1.40;;;1.20;;
57551;SDS011;43379;48.160;14.036;2023-08-08T09:53:36;4.53;;;1.70;;
57551;SDS011;43379;48.160;14.036;2023-08-08T09:56:03;1.30;;;1.10;;
57551;SDS011;43379;48.160;14.036;2023-08-08T09:58:30;1.90;;;1.70;;
57551;SDS011;43379;48.160;14.036;2023-08-08T10:00:56;1.20;;;1.10;;
57551;SDS011;43379;48.160;14.036;2023-08-08T10:03:22;1.40;;;1.20;;
57551;SDS011;43379;48.160;14.036;2023-08-08T10:05:48;2.03;;;1.13;;
57551;SDS011;43379;48.160;14.036;2023-08-08T10:08:16;1.37;;;1.27;;
57551;SDS011;43379;48.160;14.036;2023-08-08T10:10:44;1.90;;;1.40;;
57551;SDS011;43379;48.160;14.036;2023-08-08T10:13:18;1.70;;;1.40;;
57551;SDS011;43379;48.160;14.036;2023-08-08T10:15:45;1.90;;;1.50;;
57551;SDS011;43379;48.160;14.036;2023-08-08T10:18:12;3.33;;;1.50;;
57551;SDS011;43379;48.160;14.036;2023-08-08T10:20:40;1.67;;;1.57;;
57551;SDS011;43379;48.160;14.036;2023-08-08T10:23:09;1.70;;;1.40;;
57551;SDS011;43379;48.160;14.036;2023-08-08T10:25:35;1.70;;;1.40;;
57551;SDS011;43379;48.160;14.036;2023-08-08T10:28:11;2.67;;;1.40;;
57551;SDS011;43379;48.160;14.036;2023-08-08T10:30:42;2.33;;;1.50;;
57551;SDS011;43379;48.160;14.036;2023-08-08T10:33:19;1.30;;;1.10;;
57551;SDS011;43379;48.160;14.036;2023-08-08T10:36:05;3.60;;;1.37;;
57551;SDS011;43379;48.160;14.036;2023-08-08T10:38:42;1.90;;;1.33;;
57551;SDS011;43379;48.160;14.036;2023-08-08T10:41:18;1.83;;;1.50;;
57551;SDS011;43379;48.160;14.036;2023-08-08T10:43:53;1.90;;;1.40;;
57551;SDS011;43379;48.160;14.036;2023-08-08T10:46:30;2.67;;;1.50;;
57551;SDS011;43379;48.160;14.036;2023-08-08T10:48:58;1.70;;;1.23;;
57551;SDS011;43379;48.160;14.036;2023-08-08T10:51:32;1.70;;;1.30;;
57551;SDS011;43379;48.160;14.036;2023-08-08T10:53:58;1.80;;;1.40;;
57551;SDS011;43379;48.160;14.036;2023-08-08T10:56:27;4.27;;;1.37;;
57551;SDS011;43379;48.160;14.036;2023-08-08T10:58:56;2.10;;;1.73;;
57551;SDS011;43379;48.160;14.036;2023-08-08T11:01:25;2.80;;;2.50;;
57551;SDS011;43379;48.160;14.036;2023-08-08T11:03:51;1.70;;;1.17;;
57551;SDS011;43379;48.160;14.036;2023-08-08T11:06:17;1.87;;;1.33;;
57551;SDS011;43379;48.160;14.036;2023-08-08T11:08:44;4.07;;;2.03;;
57551;SDS011;43379;48.160;14.036;2023-08-08T11:11:09;3.10;;;1.63;;
57551;SDS011;43379;48.160;14.036;2023-08-08T11:13:35;1.57;;;1.17;;
57551;SDS011;43379;48.160;14.036;2023-08-08T11:16:01;1.67;;;1.40;;
57551;SDS011;43379;48.160;14.036;2023-08-08T11:18:27;1.20;;;1.10;;
57551;SDS011;43379;48.160;14.036;2023-08-08T11:20:53;2.20;;;2.00;;
57551;SDS011;43379;48.160;14.036;2023-08-08T11:23:18;3.17;;;1.67;;
57551;SDS011;43379;48.160;14.036;2023-08-08T11:25:45;2.10;;;1.30;;
57551;SDS011;43379;48.160;14.036;2023-08-08T11:28:12;2.83;;;1.33;;
57551;SDS011;43379;48.160;14.036;2023-08-08T11:30:43;1.90;;;1.10;;
57551;SDS011;43379;48.160;14.036;2023-08-08T11:33:10;2.70;;;1.90;;
57551;SDS011;43379;48.160;14.036;2023-08-08T11:35:42;6.03;;;1.43;;
57551;SDS011;43379;48.160;14.036;2023-08-08T11:38:11;2.50;;;1.40;;
57551;SDS011;43379;48.160;14.036;2023-08-08T11:40:38;2.67;;;1.40;;
57551;SDS011;43379;48.160;14.036;2023-08-08T11:43:03;2.17;;;1.37;;
57551;SDS011;43379;48.160;14.036;2023-08-08T11:45:31;1.63;;;1.47;;
57551;SDS011;43379;48.160;14.036;2023-08-08T11:47:57;1.50;;;1.10;;
57551;SDS011;43379;48.160;14.036;2023-08-08T11:50:23;1.57;;;1.43;;
57551;SDS011;43379;48.160;14.036;2023-08-08T11:52:53;1.83;;;1.30;;
57551;SDS011;43379;48.160;14.036;2023-08-08T11:55:20;1.57;;;1.47;;
57551;SDS011;43379;48.160;14.036;2023-08-08T11:57:47;3.17;;;1.70;;
57551;SDS011;43379;48.160;14.036;2023-08-08T12:00:13;1.50;;;1.30;;
57551;SDS011;43379;48.160;14.036;2023-08-08T12:02:40;2.10;;;1.10;;
57551;SDS011;43379;48.160;14.036;2023-08-08T12:05:07;2.10;;;1.90;;
57551;SDS011;43379;48.160;14.036;2023-08-08T12:07:37;1.60;;;1.50;;
57551;SDS011;43379;48.160;14.036;2023-08-08T12:10:12;6.50;;;1.93;;
57551;SDS011;43379;48.160;14.036;2023-08-08T12:12:56;4.10;;;1.40;;
57551;SDS011;43379;48.160;14.036;2023-08-08T12:15:34;2.10;;;1.33;;
57551;SDS011;43379;48.160;14.036;2023-08-08T12:18:01;2.07;;;1.60;;
57551;SDS011;43379;48.160;14.036;2023-08-08T12:20:28;2.10;;;1.13;;
57551;SDS011;43379;48.160;14.036;2023-08-08T12:22:54;3.30;;;1.50;;
57551;SDS011;43379;48.160;14.036;2023-08-08T12:25:20;1.80;;;1.30;;
57551;SDS011;43379;48.160;14.036;2023-08-08T12:27:46;2.93;;;1.27;;
57551;SDS011;43379;48.160;14.036;2023-08-08T12:30:11;2.40;;;1.77;;
57551;SDS011;43379;48.160;14.036;2023-08-08T12:32:37;3.57;;;1.47;;
57551;SDS011;43379;48.160;14.036;2023-08-08T12:35:03;2.27;;;1.50;;
57551;SDS011;43379;48.160;14.036;2023-08-08T12:37:29;2.40;;;1.80;;
57551;SDS011;43379;48.160;14.036;2023-08-08T12:39:54;1.73;;;1.43;;
57551;SDS011;43379;48.160;14.036;2023-08-08T12:42:20;2.20;;;1.43;;
57551;SDS011;43379;48.160;14.036;2023-08-08T12:44:46;1.60;;;1.50;;
57551;SDS011;43379;48.160;14.036;2023-08-08T12:47:12;4.00;;;1.53;;
57551;SDS011;43379;48.160;14.036;2023-08-08T12:49:39;1.87;;;1.50;;
57551;SDS011;43379;48.160;14.036;2023-08-08T12:52:04;1.50;;;1.20;;
57551;SDS011;43379;48.160;14.036;2023-08-08T12:54:30;1.50;;;1.40;;
57551;SDS011;43379;48.160;14.036;2023-08-08T12:56:56;1.60;;;1.50;;
57551;SDS011;43379;48.160;14.036;2023-08-08T12:59:21;10.97;;;3.50;;
57551;SDS011;43379;48.160;14.036;2023-08-08T13:01:47;10.00;;;2.30;;
57551;SDS011;43379;48.160;14.036;2023-08-08T13:04:13;2.40;;;1.83;;
57551;SDS011;43379;48.160;14.036;2023-08-08T13:06:38;3.40;;;1.50;;
57551;SDS011;43379;48.160;14.036;2023-08-08T13:09:04;1.77;;;1.37;;
57551;SDS011;43379;48.160;14.036;2023-08-08T13:11:30;2.03;;;1.67;;
57551;SDS011;43379;48.160;14.036;2023-08-08T13:13:55;1.60;;;1.20;;
57551;SDS011;43379;48.160;14.036;2023-08-08T13:16:21;1.93;;;1.50;;
57551;SDS011;43379;48.160;14.036;2023-08-08T13:18:47;1.97;;;1.60;;
57551;SDS011;43379;48.160;14.036;2023-08-08T13:21:12;2.67;;;1.50;;
57551;SDS011;43379;48.160;14.036;2023-08-08T13:23:38;1.70;;;1.40;;
57551;SDS011;43379;48.160;14.036;2023-08-08T13:26:05;1.80;;;1.60;;
57551;SDS011;43379;48.160;14.036;2023-08-08T13:28:31;1.70;;;1.60;;
57551;SDS011;43379;48.160;14.036;2023-08-08T13:30:57;3.13;;;1.83;;
57551;SDS011;43379;48.160;14.036;2023-08-08T13:33:22;6.60;;;1.63;;
57551;SDS011;43379;48.160;14.036;2023-08-08T13:35:49;2.90;;;1.60;;
57551;SDS011;43379;48.160;14.036;2023-08-08T13:38:14;1.87;;;1.27;;
57551;SDS011;43379;48.160;14.036;2023-08-08T13:40:41;2.83;;;1.67;;
57551;SDS011;43379;48.160;14.036;2023-08-08T13:43:06;2.23;;;1.90;;
57551;SDS011;43379;48.160;14.036;2023-08-08T13:45:32;1.37;;;1.27;;
57551;SDS011;43379;48.160;14.036;2023-08-08T13:47:58;2.23;;;1.50;;
57551;SDS011;43379;48.160;14.036;2023-08-08T13:50:23;1.87;;;1.40;;
57551;SDS011;43379;48.160;14.036;2023-08-08T13:52:49;1.93;;;1.40;;
57551;SDS011;43379;48.160;14.036;2023-08-08T13:55:15;1.80;;;1.47;;
57551;SDS011;43379;48.160;14.036;2023-08-08T13:57:40;2.00;;;1.80;;
57551;SDS011;43379;48.160;14.036;2023-08-08T14:00:06;1.70;;;1.27;;
57551;SDS011;43379;48.160;14.036;2023-08-08T14:02:35;1.83;;;1.47;;
57551;SDS011;43379;48.160;14.036;2023-08-08T14:05:01;2.43;;;1.37;;
57551;SDS011;43379;48.160;14.036;2023-08-08T14:07:27;3.83;;;1.30;;
57551;SDS011;43379;48.160;14.036;2023-08-08T14:09:53;1.87;;;1.60;;
57551;SDS011;43379;48.160;14.036;2023-08-08T14:12:18;2.60;;;1.43;;
57551;SDS011;43379;48.160;14.036;2023-08-08T14:14:44;2.10;;;1.40;;
57551;SDS011;43379;48.160;14.036;2023-08-08T14:17:09;2.13;;;1.70;;
57551;SDS011;43379;48.160;14.036;2023-08-08T14:19:35;2.30;;;1.13;;
57551;SDS011;43379;48.160;14.036;2023-08-08T14:22:01;1.30;;;1.20;;
57551;SDS011;43379;48.160;14.036;2023-08-08T14:24:26;2.30;;;1.23;;
57551;SDS011;43379;48.160;14.036;2023-08-08T14:26:52;2.60;;;1.53;;
57551;SDS011;43379;48.160;14.036;2023-08-08T14:29:17;4.87;;;1.77;;
57551;SDS011;43379;48.160;14.036;2023-08-08T14:31:43;2.90;;;1.40;;